sensor_id;sensor_type;location;lat;lon;timestamp;P1;durP1;ratioP1;P2;durP2;ratioP2
21543;SDS011;10933;50.754;11.508;2023-07-13T00:00:49;0.65;;;0.65;;
21543;SDS011;10933;50.754;11.508;2023-07-13T00:03:15;0.68;;;0.68;;
21543;SDS011;10933;50.754;11.508;2023-07-13T00:05:42;1.50;;;1.05;;
21543;SDS011;10933;50.754;11.508;2023-07-13T00:08:08;1.40;;;1.30;;
21543;SDS011;10933;50.754;11.508;2023-07-13T00:10:40;0.95;;;0.95;;
21543;SDS011;10933;50.754;11.508;2023-07-13T00:13:07;1.02;;;1.02;;
21543;SDS011;10933;50.754;11.508;2023-07-13T00:15:33;1.10;;;1.00;;
21543;SDS011;10933;50.754;11.508;2023-07-13T00:18:00;1.23;;;1.13;;
21543;SDS011;10933;50.754;11.508;2023-07-13T00:20:26;1.02;;;1.00;;
21543;SDS011;10933;50.754;11.508;2023-07-13T00:22:53;1.10;;;1.00;;
21543;SDS011;10933;50.754;11.508;2023-07-13T00:25:20;0.90;;;0.90;;
21543;SDS011;10933;50.754;11.508;2023-07-13T00:27:49;1.10;;;1.00;;
21543;SDS011;10933;50.754;11.508;2023-07-13T00:30:15;1.98;;;1.10;;
21543;SDS011;10933;50.754;11.508;2023-07-13T00:32:42;1.25;;;1.00;;
21543;SDS011;10933;50.754;11.508;2023-07-13T00:35:08;0.93;;;0.88;;
21543;SDS011;10933;50.754;11.508;2023-07-13T00:37:34;2.80;;;1.20;;
21543;SDS011;10933;50.754;11.508;2023-07-13T00:40:04;1.38;;;1.00;;
21543;SDS011;10933;50.754;11.508;2023-07-13T00:42:31;1.42;;;1.00;;
21543;SDS011;10933;50.754;11.508;2023-07-13T00:47:27;1.10;;;1.10;;
21543;SDS011;10933;50.754;11.508;2023-07-13T00:49:53;1.17;;;1.10;;
21543;SDS011;10933;50.754;11.508;2023-07-13T00:52:19;2.75;;;2.20;;
21543;SDS011;10933;50.754;11.508;2023-07-13T00:54:46;2.70;;;1.10;;
21543;SDS011;10933;50.754;11.508;2023-07-13T00:57:14;1.23;;;1.13;;
21543;SDS011;10933;50.754;11.508;2023-07-13T00:59:46;1.13;;;1.05;;
21543;SDS011;10933;50.754;11.508;2023-07-13T01:02:16;1.38;;;1.27;;
21543;SDS011;10933;50.754;11.508;2023-07-13T01:04:43;1.33;;;0.95;;
21543;SDS011;10933;50.754;11.508;2023-07-13T01:07:09;1.00;;;1.00;;
21543;SDS011;10933;50.754;11.508;2023-07-13T01:09:37;1.20;;;1.15;;
21543;SDS011;10933;50.754;11.508;2023-07-13T01:12:03;1.00;;;1.00;;
21543;SDS011;10933;50.754;11.508;2023-07-13T01:14:29;3.45;;;1.00;;
21543;SDS011;10933;50.754;11.508;2023-07-13T01:16:56;1.23;;;1.13;;
21543;SDS011;10933;50.754;11.508;2023-07-13T01:22:07;1.63;;;1.20;;
21543;SDS011;10933;50.754;11.508;2023-07-13T01:24:39;1.10;;;1.00;;
21543;SDS011;10933;50.754;11.508;2023-07-13T01:27:08;1.20;;;1.10;;
21543;SDS011;10933;50.754;11.508;2023-07-13T01:29:36;1.35;;;1.25;;
21543;SDS011;10933;50.754;11.508;2023-07-13T01:32:07;2.20;;;1.17;;
21543;SDS011;10933;50.754;11.508;2023-07-13T01:34:35;1.20;;;1.10;;
21543;SDS011;10933;50.754;11.508;2023-07-13T01:37:02;0.93;;;0.93;;
21543;SDS011;10933;50.754;11.508;2023-07-13T01:39:32;0.98;;;0.98;;
21543;SDS011;10933;50.754;11.508;2023-07-13T01:41:58;1.25;;;1.20;;
21543;SDS011;10933;50.754;11.508;2023-07-13T01:44:25;0.90;;;0.90;;
21543;SDS011;10933;50.754;11.508;2023-07-13T01:46:51;0.90;;;0.90;;
21543;SDS011;10933;50.754;11.508;2023-07-13T01:49:17;3.28;;;1.17;;
21543;SDS011;10933;50.754;11.508;2023-07-13T01:51:43;1.15;;;1.15;;
21543;SDS011;10933;50.754;11.508;2023-07-13T01:54:10;1.35;;;0.98;;
21543;SDS011;10933;50.754;11.508;2023-07-13T01:56:36;0.98;;;0.90;;
21543;SDS011;10933;50.754;11.508;2023-07-13T01:59:02;1.20;;;1.10;;
21543;SDS011;10933;50.754;11.508;2023-07-13T02:01:28;1.60;;;1.50;;
21543;SDS011;10933;50.754;11.508;2023-07-13T02:03:54;1.55;;;1.17;;
21543;SDS011;10933;50.754;11.508;2023-07-13T02:06:20;1.40;;;1.30;;
21543;SDS011;10933;50.754;11.508;2023-07-13T02:08:46;1.23;;;1.13;;
21543;SDS011;10933;50.754;11.508;2023-07-13T02:11:13;1.20;;;1.10;;
21543;SDS011;10933;50.754;11.508;2023-07-13T02:13:39;1.55;;;1.45;;
21543;SDS011;10933;50.754;11.508;2023-07-13T02:16:05;1.25;;;1.15;;
21543;SDS011;10933;50.754;11.508;2023-07-13T02:18:31;1.05;;;1.05;;
21543;SDS011;10933;50.754;11.508;2023-07-13T02:20:58;1.20;;;1.10;;
21543;SDS011;10933;50.754;11.508;2023-07-13T02:23:24;1.35;;;1.25;;
21543;SDS011;10933;50.754;11.508;2023-07-13T02:25:54;1.45;;;1.35;;
21543;SDS011;10933;50.754;11.508;2023-07-13T02:28:24;1.50;;;1.40;;
21543;SDS011;10933;50.754;11.508;2023-07-13T02:30:50;1.08;;;1.08;;
21543;SDS011;10933;50.754;11.508;2023-07-13T02:33:17;1.10;;;1.10;;
21543;SDS011;10933;50.754;11.508;2023-07-13T02:35:43;1.42;;;1.33;;
21543;SDS011;10933;50.754;11.508;2023-07-13T02:38:09;1.38;;;1.27;;
21543;SDS011;10933;50.754;11.508;2023-07-13T02:40:36;1.38;;;1.27;;
21543;SDS011;10933;50.754;11.508;2023-07-13T02:43:03;1.50;;;1.40;;
21543;SDS011;10933;50.754;11.508;2023-07-13T02:45:29;1.75;;;1.20;;
21543;SDS011;10933;50.754;11.508;2023-07-13T02:47:55;1.20;;;1.20;;
21543;SDS011;10933;50.754;11.508;2023-07-13T02:50:21;3.78;;;1.15;;
21543;SDS011;10933;50.754;11.508;2023-07-13T02:52:47;1.05;;;1.05;;
21543;SDS011;10933;50.754;11.508;2023-07-13T02:55:14;1.40;;;1.30;;
21543;SDS011;10933;50.754;11.508;2023-07-13T02:57:40;1.65;;;1.50;;
21543;SDS011;10933;50.754;11.508;2023-07-13T03:00:06;1.30;;;1.20;;
21543;SDS011;10933;50.754;11.508;2023-07-13T03:02:34;1.92;;;1.60;;
21543;SDS011;10933;50.754;11.508;2023-07-13T03:05:00;1.50;;;1.40;;
21543;SDS011;10933;50.754;11.508;2023-07-13T03:07:27;4.55;;;1.40;;
21543;SDS011;10933;50.754;11.508;2023-07-13T03:09:54;1.30;;;1.20;;
21543;SDS011;10933;50.754;11.508;2023-07-13T03:12:21;1.40;;;1.30;;
21543;SDS011;10933;50.754;11.508;2023-07-13T03:14:48;1.30;;;1.20;;
21543;SDS011;10933;50.754;11.508;2023-07-13T03:17:14;1.10;;;1.10;;
21543;SDS011;10933;50.754;11.508;2023-07-13T03:19:40;1.67;;;1.55;;
21543;SDS011;10933;50.754;11.508;2023-07-13T03:22:06;1.17;;;1.08;;
21543;SDS011;10933;50.754;11.508;2023-07-13T03:24:33;1.88;;;1.77;;
21543;SDS011;10933;50.754;11.508;2023-07-13T03:27:03;1.27;;;1.17;;
21543;SDS011;10933;50.754;11.508;2023-07-13T03:29:30;1.00;;;1.00;;
21543;SDS011;10933;50.754;11.508;2023-07-13T03:31:56;2.00;;;1.45;;
21543;SDS011;10933;50.754;11.508;2023-07-13T03:34:23;2.25;;;1.30;;
21543;SDS011;10933;50.754;11.508;2023-07-13T03:36:49;1.58;;;1.38;;
21543;SDS011;10933;50.754;11.508;2023-07-13T03:39:15;1.10;;;1.10;;
21543;SDS011;10933;50.754;11.508;2023-07-13T03:41:41;1.55;;;1.45;;
21543;SDS011;10933;50.754;11.508;2023-07-13T03:44:07;1.50;;;1.40;;
21543;SDS011;10933;50.754;11.508;2023-07-13T03:46:34;1.40;;;1.30;;
21543;SDS011;10933;50.754;11.508;2023-07-13T03:49:00;1.58;;;1.48;;
21543;SDS011;10933;50.754;11.508;2023-07-13T03:51:30;1.30;;;1.20;;
21543;SDS011;10933;50.754;11.508;2023-07-13T03:53:56;1.20;;;1.20;;
21543;SDS011;10933;50.754;11.508;2023-07-13T03:56:23;3.10;;;1.30;;
21543;SDS011;10933;50.754;11.508;2023-07-13T03:58:49;1.48;;;1.38;;
21543;SDS011;10933;50.754;11.508;2023-07-13T04:01:16;1.40;;;1.30;;
21543;SDS011;10933;50.754;11.508;2023-07-13T04:03:44;1.65;;;1.55;;
21543;SDS011;10933;50.754;11.508;2023-07-13T04:06:19;1.98;;;1.88;;
21543;SDS011;10933;50.754;11.508;2023-07-13T04:08:49;1.70;;;1.60;;
21543;SDS011;10933;50.754;11.508;2023-07-13T04:11:17;1.42;;;1.33;;
21543;SDS011;10933;50.754;11.508;2023-07-13T04:13:44;4.65;;;1.60;;
21543;SDS011;10933;50.754;11.508;2023-07-13T04:16:11;1.73;;;1.63;;
21543;SDS011;10933;50.754;11.508;2023-07-13T04:18:38;7.82;;;1.58;;
21543;SDS011;10933;50.754;11.508;2023-07-13T04:21:04;1.48;;;1.38;;
21543;SDS011;10933;50.754;11.508;2023-07-13T04:23:30;8.75;;;1.60;;
21543;SDS011;10933;50.754;11.508;2023-07-13T04:25:56;2.05;;;1.85;;
21543;SDS011;10933;50.754;11.508;2023-07-13T04:28:23;1.50;;;1.40;;
21543;SDS011;10933;50.754;11.508;2023-07-13T04:30:50;1.40;;;1.30;;
21543;SDS011;10933;50.754;11.508;2023-07-13T04:33:17;1.52;;;1.42;;
21543;SDS011;10933;50.754;11.508;2023-07-13T04:35:47;1.90;;;1.80;;
21543;SDS011;10933;50.754;11.508;2023-07-13T04:38:22;1.50;;;1.40;;
21543;SDS011;10933;50.754;11.508;2023-07-13T04:40:50;2.78;;;1.52;;
21543;SDS011;10933;50.754;11.508;2023-07-13T04:43:17;1.52;;;1.42;;
21543;SDS011;10933;50.754;11.508;2023-07-13T04:45:43;1.40;;;1.30;;
21543;SDS011;10933;50.754;11.508;2023-07-13T04:48:10;1.40;;;1.30;;
21543;SDS011;10933;50.754;11.508;2023-07-13T04:50:36;1.27;;;1.20;;
21543;SDS011;10933;50.754;11.508;2023-07-13T04:53:03;1.50;;;1.40;;
21543;SDS011;10933;50.754;11.508;2023-07-13T04:55:30;1.45;;;1.30;;
21543;SDS011;10933;50.754;11.508;2023-07-13T04:57:57;2.75;;;1.40;;
21543;SDS011;10933;50.754;11.508;2023-07-13T05:00:24;1.58;;;1.38;;
21543;SDS011;10933;50.754;11.508;2023-07-13T05:02:51;1.20;;;1.05;;
21543;SDS011;10933;50.754;11.508;2023-07-13T05:05:18;2.25;;;1.38;;
21543;SDS011;10933;50.754;11.508;2023-07-13T05:07:44;1.50;;;1.05;;
21543;SDS011;10933;50.754;11.508;2023-07-13T05:10:11;2.40;;;1.05;;
21543;SDS011;10933;50.754;11.508;2023-07-13T05:12:37;1.63;;;0.90;;
21543;SDS011;10933;50.754;11.508;2023-07-13T05:15:03;1.17;;;0.75;;
21543;SDS011;10933;50.754;11.508;2023-07-13T05:17:30;1.30;;;0.90;;
21543;SDS011;10933;50.754;11.508;2023-07-13T05:19:56;2.90;;;0.77;;
21543;SDS011;10933;50.754;11.508;2023-07-13T05:22:22;0.90;;;0.80;;
21543;SDS011;10933;50.754;11.508;2023-07-13T05:24:48;1.15;;;0.80;;
21543;SDS011;10933;50.754;11.508;2023-07-13T05:27:14;1.20;;;0.90;;
21543;SDS011;10933;50.754;11.508;2023-07-13T05:29:40;1.17;;;0.90;;
21543;SDS011;10933;50.754;11.508;2023-07-13T05:32:07;1.45;;;1.35;;
21543;SDS011;10933;50.754;11.508;2023-07-13T05:34:33;0.95;;;0.95;;
21543;SDS011;10933;50.754;11.508;2023-07-13T05:36:59;8.05;;;0.90;;
21543;SDS011;10933;50.754;11.508;2023-07-13T05:39:25;2.00;;;1.10;;
21543;SDS011;10933;50.754;11.508;2023-07-13T05:41:52;1.42;;;1.00;;
21543;SDS011;10933;50.754;11.508;2023-07-13T05:44:18;3.08;;;1.00;;
21543;SDS011;10933;50.754;11.508;2023-07-13T05:46:45;3.45;;;0.98;;
21543;SDS011;10933;50.754;11.508;2023-07-13T05:49:11;0.80;;;0.80;;
21543;SDS011;10933;50.754;11.508;2023-07-13T05:51:37;1.33;;;1.00;;
21543;SDS011;10933;50.754;11.508;2023-07-13T05:54:03;0.82;;;0.60;;
21543;SDS011;10933;50.754;11.508;2023-07-13T05:56:29;2.33;;;0.88;;
21543;SDS011;10933;50.754;11.508;2023-07-13T05:58:56;0.88;;;0.88;;
21543;SDS011;10933;50.754;11.508;2023-07-13T06:01:22;5.07;;;1.00;;
21543;SDS011;10933;50.754;11.508;2023-07-13T06:03:48;1.60;;;0.90;;
21543;SDS011;10933;50.754;11.508;2023-07-13T06:06:15;1.50;;;0.70;;
21543;SDS011;10933;50.754;11.508;2023-07-13T06:08:42;1.05;;;0.80;;
21543;SDS011;10933;50.754;11.508;2023-07-13T06:11:13;1.35;;;0.80;;
21543;SDS011;10933;50.754;11.508;2023-07-13T06:13:45;0.63;;;0.60;;
21543;SDS011;10933;50.754;11.508;2023-07-13T06:16:12;1.17;;;0.68;;
21543;SDS011;10933;50.754;11.508;2023-07-13T06:18:39;2.25;;;0.80;;
21543;SDS011;10933;50.754;11.508;2023-07-13T06:21:07;1.48;;;0.80;;
21543;SDS011;10933;50.754;11.508;2023-07-13T06:23:34;1.73;;;1.13;;
21543;SDS011;10933;50.754;11.508;2023-07-13T06:26:02;1.20;;;0.85;;
21543;SDS011;10933;50.754;11.508;2023-07-13T06:28:29;0.80;;;0.80;;
21543;SDS011;10933;50.754;11.508;2023-07-13T06:30:56;1.55;;;1.00;;
21543;SDS011;10933;50.754;11.508;2023-07-13T06:33:23;0.88;;;0.80;;
21543;SDS011;10933;50.754;11.508;2023-07-13T06:35:53;1.27;;;0.85;;
21543;SDS011;10933;50.754;11.508;2023-07-13T06:38:22;0.85;;;0.80;;
21543;SDS011;10933;50.754;11.508;2023-07-13T06:40:48;1.27;;;0.90;;
21543;SDS011;10933;50.754;11.508;2023-07-13T06:43:14;1.13;;;0.90;;
21543;SDS011;10933;50.754;11.508;2023-07-13T06:45:46;1.38;;;1.00;;
21543;SDS011;10933;50.754;11.508;2023-07-13T06:48:15;4.53;;;0.70;;
21543;SDS011;10933;50.754;11.508;2023-07-13T06:50:42;0.93;;;0.82;;
21543;SDS011;10933;50.754;11.508;2023-07-13T06:53:09;1.02;;;0.90;;
21543;SDS011;10933;50.754;11.508;2023-07-13T06:55:36;0.90;;;0.80;;
21543;SDS011;10933;50.754;11.508;2023-07-13T06:58:03;1.00;;;0.90;;
21543;SDS011;10933;50.754;11.508;2023-07-13T07:00:29;7.22;;;1.20;;
21543;SDS011;10933;50.754;11.508;2023-07-13T07:02:56;5.10;;;0.82;;
21543;SDS011;10933;50.754;11.508;2023-07-13T07:05:22;1.00;;;0.75;;
21543;SDS011;10933;50.754;11.508;2023-07-13T07:07:52;3.70;;;0.70;;
21543;SDS011;10933;50.754;11.508;2023-07-13T07:10:19;1.17;;;0.93;;
21543;SDS011;10933;50.754;11.508;2023-07-13T07:12:46;1.10;;;0.90;;
21543;SDS011;10933;50.754;11.508;2023-07-13T07:15:13;1.08;;;0.90;;
21543;SDS011;10933;50.754;11.508;2023-07-13T07:17:39;1.13;;;1.00;;
21543;SDS011;10933;50.754;11.508;2023-07-13T07:20:06;1.77;;;0.90;;
21543;SDS011;10933;50.754;11.508;2023-07-13T07:22:33;1.20;;;1.05;;
21543;SDS011;10933;50.754;11.508;2023-07-13T07:24:59;1.27;;;1.05;;
21543;SDS011;10933;50.754;11.508;2023-07-13T07:27:25;1.17;;;0.85;;
21543;SDS011;10933;50.754;11.508;2023-07-13T07:29:51;1.25;;;1.02;;
21543;SDS011;10933;50.754;11.508;2023-07-13T07:32:18;0.77;;;0.73;;
21543;SDS011;10933;50.754;11.508;2023-07-13T07:34:45;0.85;;;0.85;;
21543;SDS011;10933;50.754;11.508;2023-07-13T07:37:15;1.13;;;0.80;;
21543;SDS011;10933;50.754;11.508;2023-07-13T07:39:42;1.17;;;0.80;;
21543;SDS011;10933;50.754;11.508;2023-07-13T07:42:09;1.30;;;0.70;;
21543;SDS011;10933;50.754;11.508;2023-07-13T07:44:37;0.80;;;0.80;;
21543;SDS011;10933;50.754;11.508;2023-07-13T07:47:05;2.72;;;0.75;;
21543;SDS011;10933;50.754;11.508;2023-07-13T07:49:32;1.30;;;0.70;;
21543;SDS011;10933;50.754;11.508;2023-07-13T07:51:58;1.48;;;1.00;;
21543;SDS011;10933;50.754;11.508;2023-07-13T07:54:24;0.77;;;0.70;;
21543;SDS011;10933;50.754;11.508;2023-07-13T07:56:50;0.88;;;0.70;;
21543;SDS011;10933;50.754;11.508;2023-07-13T07:59:16;1.10;;;0.77;;
21543;SDS011;10933;50.754;11.508;2023-07-13T08:01:43;0.88;;;0.80;;
21543;SDS011;10933;50.754;11.508;2023-07-13T08:04:11;1.63;;;0.90;;
21543;SDS011;10933;50.754;11.508;2023-07-13T08:06:37;0.75;;;0.60;;
21543;SDS011;10933;50.754;11.508;2023-07-13T08:09:03;0.98;;;0.82;;
21543;SDS011;10933;50.754;11.508;2023-07-13T08:11:31;1.15;;;0.80;;
21543;SDS011;10933;50.754;11.508;2023-07-13T08:13:57;0.60;;;0.60;;
21543;SDS011;10933;50.754;11.508;2023-07-13T08:16:23;0.75;;;0.75;;
21543;SDS011;10933;50.754;11.508;2023-07-13T08:18:49;1.70;;;0.75;;
21543;SDS011;10933;50.754;11.508;2023-07-13T08:21:16;0.82;;;0.70;;
21543;SDS011;10933;50.754;11.508;2023-07-13T08:23:44;1.20;;;0.88;;
21543;SDS011;10933;50.754;11.508;2023-07-13T08:26:11;0.70;;;0.70;;
21543;SDS011;10933;50.754;11.508;2023-07-13T08:28:37;1.80;;;0.85;;
21543;SDS011;10933;50.754;11.508;2023-07-13T08:31:04;1.52;;;0.88;;
21543;SDS011;10933;50.754;11.508;2023-07-13T08:33:32;1.85;;;0.80;;
21543;SDS011;10933;50.754;11.508;2023-07-13T08:36:00;1.30;;;1.02;;
21543;SDS011;10933;50.754;11.508;2023-07-13T08:38:26;1.50;;;1.00;;
21543;SDS011;10933;50.754;11.508;2023-07-13T08:40:53;0.70;;;0.70;;
21543;SDS011;10933;50.754;11.508;2023-07-13T08:43:30;1.75;;;1.00;;
21543;SDS011;10933;50.754;11.508;2023-07-13T08:48:51;0.98;;;0.93;;
21543;SDS011;10933;50.754;11.508;2023-07-13T08:51:38;0.77;;;0.75;;
21543;SDS011;10933;50.754;11.508;2023-07-13T08:54:19;0.80;;;0.80;;
21543;SDS011;10933;50.754;11.508;2023-07-13T08:56:52;1.30;;;0.90;;
21543;SDS011;10933;50.754;11.508;2023-07-13T08:59:24;1.70;;;0.88;;
21543;SDS011;10933;50.754;11.508;2023-07-13T09:02:09;1.20;;;0.90;;
21543;SDS011;10933;50.754;11.508;2023-07-13T09:04:49;0.82;;;0.75;;
21543;SDS011;10933;50.754;11.508;2023-07-13T09:10:09;1.00;;;0.77;;
21543;SDS011;10933;50.754;11.508;2023-07-13T09:12:45;0.60;;;0.60;;
21543;SDS011;10933;50.754;11.508;2023-07-13T09:15:32;0.60;;;0.50;;
21543;SDS011;10933;50.754;11.508;2023-07-13T09:18:13;0.45;;;0.45;;
21543;SDS011;10933;50.754;11.508;2023-07-13T09:21:03;1.35;;;0.55;;
21543;SDS011;10933;50.754;11.508;2023-07-13T09:23:34;2.95;;;0.80;;
21543;SDS011;10933;50.754;11.508;2023-07-13T09:26:06;0.63;;;0.60;;
21543;SDS011;10933;50.754;11.508;2023-07-13T09:28:47;1.30;;;1.02;;
21543;SDS011;10933;50.754;11.508;2023-07-13T09:31:34;0.95;;;0.88;;
21543;SDS011;10933;50.754;11.508;2023-07-13T09:34:09;1.33;;;0.75;;
21543;SDS011;10933;50.754;11.508;2023-07-13T09:36:37;1.20;;;0.40;;
21543;SDS011;10933;50.754;11.508;2023-07-13T09:39:24;0.73;;;0.50;;
21543;SDS011;10933;50.754;11.508;2023-07-13T09:44:43;0.35;;;0.35;;
21543;SDS011;10933;50.754;11.508;2023-07-13T09:47:20;0.70;;;0.50;;
21543;SDS011;10933;50.754;11.508;2023-07-13T09:49:58;1.10;;;0.50;;
21543;SDS011;10933;50.754;11.508;2023-07-13T09:52:27;0.40;;;0.40;;
21543;SDS011;10933;50.754;11.508;2023-07-13T09:55:04;0.38;;;0.30;;
21543;SDS011;10933;50.754;11.508;2023-07-13T09:57:47;0.50;;;0.30;;
21543;SDS011;10933;50.754;11.508;2023-07-13T10:00:20;0.75;;;0.30;;
21543;SDS011;10933;50.754;11.508;2023-07-13T10:02:57;0.43;;;0.20;;
21543;SDS011;10933;50.754;11.508;2023-07-13T10:05:24;0.30;;;0.30;;
21543;SDS011;10933;50.754;11.508;2023-07-13T10:07:51;0.63;;;0.30;;
21543;SDS011;10933;50.754;11.508;2023-07-13T10:10:21;1.85;;;0.30;;
21543;SDS011;10933;50.754;11.508;2023-07-13T10:12:48;0.20;;;0.20;;
21543;SDS011;10933;50.754;11.508;2023-07-13T10:15:17;0.35;;;0.20;;
21543;SDS011;10933;50.754;11.508;2023-07-13T10:17:47;0.20;;;0.20;;
21543;SDS011;10933;50.754;11.508;2023-07-13T10:20:15;0.43;;;0.43;;
21543;SDS011;10933;50.754;11.508;2023-07-13T10:25:13;0.32;;;0.20;;
21543;SDS011;10933;50.754;11.508;2023-07-13T10:27:43;0.52;;;0.20;;
21543;SDS011;10933;50.754;11.508;2023-07-13T10:30:15;4.00;;;0.30;;
21543;SDS011;10933;50.754;11.508;2023-07-13T10:32:43;1.02;;;0.60;;
21543;SDS011;10933;50.754;11.508;2023-07-13T10:35:14;0.20;;;0.20;;
21543;SDS011;10933;50.754;11.508;2023-07-13T10:40:41;3.40;;;0.30;;
21543;SDS011;10933;50.754;11.508;2023-07-13T10:43:32;0.43;;;0.20;;
21543;SDS011;10933;50.754;11.508;2023-07-13T10:46:06;1.00;;;0.28;;
21543;SDS011;10933;50.754;11.508;2023-07-13T10:48:35;0.60;;;0.25;;
21543;SDS011;10933;50.754;11.508;2023-07-13T10:51:03;0.43;;;0.30;;
21543;SDS011;10933;50.754;11.508;2023-07-13T10:53:32;0.20;;;0.20;;
21543;SDS011;10933;50.754;11.508;2023-07-13T10:56:05;0.77;;;0.30;;
21543;SDS011;10933;50.754;11.508;2023-07-13T10:58:44;2.25;;;0.35;;
21543;SDS011;10933;50.754;11.508;2023-07-13T11:03:54;0.15;;;0.15;;
21543;SDS011;10933;50.754;11.508;2023-07-13T11:08:59;0.32;;;0.20;;
21543;SDS011;10933;50.754;11.508;2023-07-13T11:11:58;0.43;;;0.20;;
21543;SDS011;10933;50.754;11.508;2023-07-13T11:14:27;0.20;;;0.17;;
21543;SDS011;10933;50.754;11.508;2023-07-13T11:28:06;0.10;;;0.10;;
21543;SDS011;10933;50.754;11.508;2023-07-13T11:38:41;0.22;;;0.20;;
21543;SDS011;10933;50.754;11.508;2023-07-13T11:41:21;4.47;;;0.30;;
21543;SDS011;10933;50.754;11.508;2023-07-13T11:44:04;0.25;;;0.20;;
21543;SDS011;10933;50.754;11.508;2023-07-13T11:46:46;4.32;;;0.38;;
21543;SDS011;10933;50.754;11.508;2023-07-13T11:49:17;0.20;;;0.20;;
21543;SDS011;10933;50.754;11.508;2023-07-13T11:51:45;0.25;;;0.25;;
21543;SDS011;10933;50.754;11.508;2023-07-13T11:54:29;0.20;;;0.20;;
21543;SDS011;10933;50.754;11.508;2023-07-13T11:57:16;0.77;;;0.30;;
21543;SDS011;10933;50.754;11.508;2023-07-13T11:59:49;0.40;;;0.30;;
21543;SDS011;10933;50.754;11.508;2023-07-13T12:02:28;0.40;;;0.20;;
21543;SDS011;10933;50.754;11.508;2023-07-13T12:05:00;0.30;;;0.30;;
21543;SDS011;10933;50.754;11.508;2023-07-13T12:07:29;0.95;;;0.20;;
21543;SDS011;10933;50.754;11.508;2023-07-13T12:10:00;0.40;;;0.22;;
21543;SDS011;10933;50.754;11.508;2023-07-13T12:12:29;0.30;;;0.22;;
21543;SDS011;10933;50.754;11.508;2023-07-13T12:14:55;1.48;;;0.40;;
21543;SDS011;10933;50.754;11.508;2023-07-13T12:17:22;0.30;;;0.30;;
21543;SDS011;10933;50.754;11.508;2023-07-13T12:19:50;3.08;;;0.20;;
21543;SDS011;10933;50.754;11.508;2023-07-13T12:22:18;0.35;;;0.28;;
21543;SDS011;10933;50.754;11.508;2023-07-13T12:24:46;0.30;;;0.30;;
21543;SDS011;10933;50.754;11.508;2023-07-13T12:27:31;3.92;;;0.20;;
21543;SDS011;10933;50.754;11.508;2023-07-13T12:29:59;0.63;;;0.40;;
21543;SDS011;10933;50.754;11.508;2023-07-13T12:32:28;0.28;;;0.28;;
21543;SDS011;10933;50.754;11.508;2023-07-13T12:34:57;0.32;;;0.30;;
21543;SDS011;10933;50.754;11.508;2023-07-13T12:37:41;0.50;;;0.30;;
21543;SDS011;10933;50.754;11.508;2023-07-13T12:40:17;0.28;;;0.20;;
21543;SDS011;10933;50.754;11.508;2023-07-13T12:42:48;1.20;;;0.40;;
21543;SDS011;10933;50.754;11.508;2023-07-13T12:45:27;1.42;;;0.30;;
21543;SDS011;10933;50.754;11.508;2023-07-13T12:47:59;0.30;;;0.30;;
21543;SDS011;10933;50.754;11.508;2023-07-13T12:50:41;0.52;;;0.30;;
21543;SDS011;10933;50.754;11.508;2023-07-13T12:53:16;0.55;;;0.30;;
21543;SDS011;10933;50.754;11.508;2023-07-13T12:55:52;0.38;;;0.30;;
21543;SDS011;10933;50.754;11.508;2023-07-13T12:58:28;0.82;;;0.45;;
21543;SDS011;10933;50.754;11.508;2023-07-13T13:01:02;0.35;;;0.30;;
21543;SDS011;10933;50.754;11.508;2023-07-13T13:03:35;0.50;;;0.28;;
21543;SDS011;10933;50.754;11.508;2023-07-13T13:08:41;0.40;;;0.40;;
21543;SDS011;10933;50.754;11.508;2023-07-13T13:11:08;0.30;;;0.30;;
21543;SDS011;10933;50.754;11.508;2023-07-13T13:13:35;0.30;;;0.30;;
21543;SDS011;10933;50.754;11.508;2023-07-13T13:16:08;0.60;;;0.40;;
21543;SDS011;10933;50.754;11.508;2023-07-13T13:18:37;0.30;;;0.30;;
21543;SDS011;10933;50.754;11.508;2023-07-13T13:21:03;0.38;;;0.30;;
21543;SDS011;10933;50.754;11.508;2023-07-13T13:23:29;0.57;;;0.35;;
21543;SDS011;10933;50.754;11.508;2023-07-13T13:25:55;1.42;;;0.50;;
21543;SDS011;10933;50.754;11.508;2023-07-13T13:28:22;0.30;;;0.20;;
21543;SDS011;10933;50.754;11.508;2023-07-13T13:30:49;0.47;;;0.30;;
21543;SDS011;10933;50.754;11.508;2023-07-13T13:33:17;1.10;;;0.47;;
21543;SDS011;10933;50.754;11.508;2023-07-13T13:35:45;1.17;;;0.20;;
21543;SDS011;10933;50.754;11.508;2023-07-13T13:38:12;0.55;;;0.40;;
21543;SDS011;10933;50.754;11.508;2023-07-13T13:40:41;1.02;;;0.45;;
21543;SDS011;10933;50.754;11.508;2023-07-13T13:43:22;0.35;;;0.32;;
21543;SDS011;10933;50.754;11.508;2023-07-13T13:45:52;0.47;;;0.30;;
21543;SDS011;10933;50.754;11.508;2023-07-13T13:48:26;0.35;;;0.30;;
21543;SDS011;10933;50.754;11.508;2023-07-13T13:50:57;0.38;;;0.28;;
21543;SDS011;10933;50.754;11.508;2023-07-13T13:53:25;0.30;;;0.30;;
21543;SDS011;10933;50.754;11.508;2023-07-13T13:55:51;0.68;;;0.40;;
21543;SDS011;10933;50.754;11.508;2023-07-13T13:58:18;0.20;;;0.20;;
21543;SDS011;10933;50.754;11.508;2023-07-13T14:00:44;0.50;;;0.30;;
21543;SDS011;10933;50.754;11.508;2023-07-13T14:03:18;0.30;;;0.30;;
21543;SDS011;10933;50.754;11.508;2023-07-13T14:05:45;0.52;;;0.30;;
21543;SDS011;10933;50.754;11.508;2023-07-13T14:08:14;0.30;;;0.30;;
21543;SDS011;10933;50.754;11.508;2023-07-13T14:10:42;0.20;;;0.20;;
21543;SDS011;10933;50.754;11.508;2023-07-13T14:13:19;0.30;;;0.30;;
21543;SDS011;10933;50.754;11.508;2023-07-13T14:15:53;1.55;;;0.30;;
21543;SDS011;10933;50.754;11.508;2023-07-13T14:18:19;0.40;;;0.40;;
21543;SDS011;10933;50.754;11.508;2023-07-13T14:20:46;1.27;;;0.50;;
21543;SDS011;10933;50.754;11.508;2023-07-13T14:23:14;2.05;;;0.40;;
21543;SDS011;10933;50.754;11.508;2023-07-13T14:25:44;0.65;;;0.40;;
21543;SDS011;10933;50.754;11.508;2023-07-13T14:28:32;2.42;;;0.40;;
21543;SDS011;10933;50.754;11.508;2023-07-13T14:30:58;0.50;;;0.32;;
21543;SDS011;10933;50.754;11.508;2023-07-13T14:33:24;0.47;;;0.40;;
21543;SDS011;10933;50.754;11.508;2023-07-13T14:35:50;0.30;;;0.30;;
21543;SDS011;10933;50.754;11.508;2023-07-13T14:38:17;0.20;;;0.20;;
21543;SDS011;10933;50.754;11.508;2023-07-13T14:40:45;0.45;;;0.30;;
21543;SDS011;10933;50.754;11.508;2023-07-13T14:43:12;0.70;;;0.43;;
21543;SDS011;10933;50.754;11.508;2023-07-13T14:45:40;0.32;;;0.30;;
21543;SDS011;10933;50.754;11.508;2023-07-13T14:48:20;0.70;;;0.50;;
21543;SDS011;10933;50.754;11.508;2023-07-13T14:50:53;1.33;;;0.40;;
21543;SDS011;10933;50.754;11.508;2023-07-13T14:53:26;0.77;;;0.30;;
21543;SDS011;10933;50.754;11.508;2023-07-13T14:55:52;1.60;;;1.50;;
21543;SDS011;10933;50.754;11.508;2023-07-13T14:58:19;0.50;;;0.50;;
21543;SDS011;10933;50.754;11.508;2023-07-13T15:00:45;0.40;;;0.30;;
21543;SDS011;10933;50.754;11.508;2023-07-13T15:03:23;0.30;;;0.30;;
21543;SDS011;10933;50.754;11.508;2023-07-13T15:05:50;1.27;;;1.17;;
21543;SDS011;10933;50.754;11.508;2023-07-13T15:08:18;0.43;;;0.43;;
21543;SDS011;10933;50.754;11.508;2023-07-13T15:10:44;0.45;;;0.40;;
21543;SDS011;10933;50.754;11.508;2023-07-13T15:13:15;0.40;;;0.40;;
21543;SDS011;10933;50.754;11.508;2023-07-13T15:15:43;0.60;;;0.38;;
21543;SDS011;10933;50.754;11.508;2023-07-13T15:18:13;1.23;;;0.40;;
21543;SDS011;10933;50.754;11.508;2023-07-13T15:20:42;2.70;;;0.32;;
21543;SDS011;10933;50.754;11.508;2023-07-13T15:23:10;3.53;;;0.70;;
21543;SDS011;10933;50.754;11.508;2023-07-13T15:25:37;0.30;;;0.30;;
21543;SDS011;10933;50.754;11.508;2023-07-13T15:28:03;0.22;;;0.22;;
21543;SDS011;10933;50.754;11.508;2023-07-13T15:30:31;0.20;;;0.20;;